Time;durP1;ratioP1;P1;durP2;ratioP2;P2;SDS_P1;SDS_P2;PMS_P1;PMS_P2;Temp;Humidity;BMP_temperature;BMP_pressure;BME280_temperature;BME280_humidity;BME280_pressure;Samples;Min_cycle;Max_cycle;Signal;HPM_P1;HPM_P2
2022/01/28 00:02:03;;;;;;;19.77;6.57;;;1.20;99.90;;;;;;4993486;28;20057;-59
2022/01/28 00:04:30;;;;;;;10.57;5.78;;;1.30;99.90;;;;;;4993273;28;20048;-58
2022/01/28 00:06:57;;;;;;;14.60;6.03;;;1.30;99.90;;;;;;4992889;28;20487;-59
2022/01/28 00:09:25;;;;;;;15.70;5.85;;;1.30;99.90;;;;;;4993318;28;20494;-59
2022/01/28 00:11:52;;;;;;;12.45;5.78;;;1.40;99.90;;;;;;4975914;28;20138;-59
2022/01/28 00:14:35;;;;;;;10.90;5.22;;;1.30;99.90;;;;;;4993275;28;20133;-58
2022/01/28 00:38:44;;;;;;;10.20;4.85;;;1.40;99.90;;;;;;4992476;28;20042;-51
2022/01/28 00:41:12;;;;;;;9.98;4.80;;;1.50;99.90;;;;;;4992794;28;20042;-53
2022/01/28 00:43:39;;;;;;;7.03;4.20;;;1.50;99.90;;;;;;4992541;28;20094;-51
2022/01/28 00:46:06;;;;;;;;;;;1.40;99.90;;;;;;4992933;28;20089;-54
2022/01/28 00:48:33;;;;;;;8.85;4.70;;;1.40;99.90;;;;;;4992294;28;19922;-52
2022/01/28 00:51:00;;;;;;;9.38;4.85;;;1.40;99.90;;;;;;4992516;28;20050;-52
2022/01/28 00:53:27;;;;;;;13.05;5.18;;;1.40;99.90;;;;;;4992545;28;20046;-53
2022/01/28 00:55:54;;;;;;;10.55;5.32;;;1.40;99.90;;;;;;4992141;28;20125;-52
2022/01/28 00:58:21;;;;;;;;;;;1.40;99.90;;;;;;4992539;28;20038;-52
2022/01/28 01:00:48;;;;;;;9.75;5.10;;;1.30;99.90;;;;;;4992448;28;19921;-53
2022/01/28 01:03:15;;;;;;;10.27;5.10;;;1.40;99.90;;;;;;4992441;28;20495;-54
2022/01/28 01:05:42;;;;;;;9.00;4.40;;;1.40;99.90;;;;;;4992423;28;20057;-52
2022/01/28 01:08:09;;;;;;;10.93;5.22;;;1.40;99.90;;;;;;4991769;28;20070;-55
2022/01/28 01:10:36;;;;;;;8.02;4.60;;;1.50;99.90;;;;;;4992359;28;20046;-51
2022/01/28 01:13:04;;;;;;;;;;;1.40;99.90;;;;;;4992719;28;20116;-51
2022/01/28 01:15:38;;;;;;;8.45;4.22;;;1.50;99.90;;;;;;4992195;28;19928;-53
2022/01/28 01:21:00;;;;;;;7.07;3.95;;;1.60;99.90;;;;;;4991944;28;20038;-52
2022/01/28 01:23:29;;;;;;;9.38;4.60;;;1.60;99.90;;;;;;4992149;28;20046;-52
2022/01/28 01:26:06;;;;;;;15.18;5.10;;;1.40;99.90;;;;;;4992137;28;20101;-51
2022/01/28 01:28:37;;;;;;;12.87;4.73;;;1.40;99.90;;;;;;4991751;28;20047;-51
2022/01/28 01:31:11;;;;;;;10.40;5.35;;;1.30;99.90;;;;;;4992021;28;20957;-54
2022/01/28 01:33:45;;;;;;;9.48;4.72;;;1.40;99.90;;;;;;4992154;28;20042;-53
2022/01/28 01:36:12;;;;;;;8.52;4.97;;;1.40;99.90;;;;;;4991978;28;20046;-51
2022/01/28 01:38:40;;;;;;;13.13;5.40;;;1.40;99.90;;;;;;4991749;28;20391;-51
2022/01/28 01:41:13;;;;;;;10.52;5.60;;;1.50;99.90;;;;;;4991976;28;20042;-51
2022/01/28 01:52:15;;;;;;;7.05;3.63;;;1.50;99.90;;;;;;4950870;29;20547;-56
2022/01/28 01:54:43;;;;;;;7.10;4.32;;;1.50;99.90;;;;;;4975585;28;20066;-55
2022/01/28 01:57:11;;;;;;;13.23;3.55;;;1.60;99.90;;;;;;4991450;28;20042;-51
2022/01/28 01:59:41;;;;;;;8.23;4.00;;;1.60;99.90;;;;;;4992099;28;20070;-52
2022/01/28 02:02:08;;;;;;;6.80;3.60;;;1.70;99.90;;;;;;4991704;28;20510;-53
2022/01/28 02:04:36;;;;;;;6.75;3.17;;;1.70;99.90;;;;;;4991697;28;20503;-51
2022/01/28 02:07:04;;;;;;;7.25;2.67;;;1.70;99.90;;;;;;4991554;28;20463;-53
2022/01/28 02:09:32;;;;;;;8.27;3.03;;;1.80;99.90;;;;;;4995572;28;20074;-56
2022/01/28 02:11:59;;;;;;;6.05;2.92;;;1.80;99.90;;;;;;4995563;28;20124;-51
2022/01/28 02:14:26;;;;;;;4.07;2.53;;;1.90;99.90;;;;;;4995446;28;20551;-52
2022/01/28 02:16:53;;;;;;;6.22;2.58;;;1.90;99.90;;;;;;4994834;28;20078;-55
2022/01/28 02:19:20;;;;;;;5.82;3.17;;;1.90;99.90;;;;;;4995346;28;20529;-51
2022/01/28 02:21:50;;;;;;;4.40;2.83;;;1.90;99.90;;;;;;4995460;28;20580;-53
2022/01/28 02:24:22;;;;;;;3.55;2.28;;;1.90;99.90;;;;;;4995575;28;20453;-54
2022/01/28 02:26:49;;;;;;;7.63;2.50;;;2.00;99.90;;;;;;4994784;28;20060;-56
2022/01/28 02:29:26;;;;;;;3.75;1.67;;;2.00;99.90;;;;;;4994994;28;20097;-53
2022/01/28 02:31:54;;;;;;;3.33;1.77;;;2.00;99.90;;;;;;4995217;28;20038;-52
2022/01/28 02:34:21;;;;;;;2.50;1.67;;;2.10;99.90;;;;;;4995101;28;20062;-54
2022/01/28 02:36:48;;;;;;;3.22;1.70;;;2.10;99.90;;;;;;4995074;28;20050;-52
2022/01/28 02:39:14;;;;;;;4.53;2.35;;;2.10;99.90;;;;;;4994691;28;20046;-55
2022/01/28 02:41:46;;;;;;;6.28;2.65;;;2.10;99.90;;;;;;4994927;28;20093;-52
2022/01/28 02:47:02;;;;;;;1.35;0.85;;;2.30;99.90;;;;;;4994431;28;20514;-55
2022/01/28 02:49:35;;;;;;;1.27;0.50;;;2.40;99.90;;;;;;4994736;28;20561;-51
2022/01/28 02:52:03;;;;;;;1.00;0.50;;;2.50;99.90;;;;;;4995119;28;20462;-55
2022/01/28 02:54:33;;;;;;;0.90;0.40;;;2.60;99.90;;;;;;4994998;28;20535;-51
2022/01/28 02:57:05;;;;;;;1.05;0.60;;;2.60;99.90;;;;;;4994150;28;20050;-51
2022/01/28 02:59:32;;;;;;;1.10;0.70;;;2.60;99.90;;;;;;4994749;28;20082;-56
2022/01/28 03:01:59;;;;;;;1.48;0.50;;;2.60;99.90;;;;;;4994656;28;20066;-52
2022/01/28 03:04:59;;;;;;;1.15;0.73;;;2.60;99.90;;;;;;4994404;28;20073;-55
2022/01/28 03:07:16;;;;;;;1.05;0.60;;;2.60;99.90;;;;;;4993990;28;20050;-51
2022/01/28 03:10:24;;;;;;;1.15;0.90;;;2.60;99.90;;;;;;4994575;28;20078;-52
2022/01/28 03:15:25;;;;;;;0.95;0.50;;;2.40;99.90;;;;;;4994142;28;20058;-51
2022/01/28 03:18:09;;;;;;;0.95;0.73;;;2.30;99.90;;;;;;4993858;28;20042;-53
2022/01/28 03:20:41;;;;;;;1.80;0.90;;;2.40;99.90;;;;;;4993276;28;20074;-52
2022/01/28 03:23:08;;;;;;;1.73;1.20;;;2.40;99.90;;;;;;4994209;28;20061;-55
2022/01/28 03:25:36;;;;;;;2.83;1.20;;;2.40;99.90;;;;;;4994162;28;20510;-55
2022/01/28 03:28:03;;;;;;;1.42;1.15;;;2.20;99.90;;;;;;4993503;28;20073;-52
2022/01/28 03:30:30;;;;;;;2.97;1.00;;;2.00;99.90;;;;;;4994130;28;20055;-54
2022/01/28 03:32:57;;;;;;;1.35;0.80;;;2.00;99.90;;;;;;4994145;28;20096;-52
2022/01/28 03:35:29;;;;;;;1.30;0.93;;;2.00;99.90;;;;;;4993794;28;20078;-53
2022/01/28 03:38:00;;;;;;;1.50;0.73;;;2.00;99.90;;;;;;4993431;28;20053;-52
2022/01/28 03:40:29;;;;;;;1.45;0.70;;;2.10;99.90;;;;;;4993966;28;20550;-54
2022/01/28 03:42:55;;;;;;;1.67;1.02;;;2.10;99.90;;;;;;4993841;28;20053;-52
2022/01/28 03:45:23;;;;;;;2.20;1.00;;;2.10;99.90;;;;;;4993878;28;20049;-52
2022/01/28 03:47:50;;;;;;;2.83;1.42;;;2.10;99.90;;;;;;4993175;28;20475;-52
2022/01/28 03:50:17;;;;;;;2.15;1.10;;;2.10;99.90;;;;;;4993724;28;20125;-52
2022/01/28 03:52:44;;;;;;;1.38;0.98;;;2.10;99.90;;;;;;4993639;28;20540;-53
2022/01/28 03:55:11;;;;;;;1.42;0.73;;;2.10;99.90;;;;;;4993709;28;20042;-52
2022/01/28 03:57:38;;;;;;;1.90;1.20;;;2.00;99.90;;;;;;4992815;28;20391;-53
2022/01/28 04:00:06;;;;;;;3.08;1.15;;;2.00;99.90;;;;;;4993637;28;20046;-53
2022/01/28 04:02:36;;;;;;;1.75;1.00;;;2.00;99.90;;;;;;4993491;28;20418;-55
2022/01/28 04:13:22;;;;;;;6.30;2.92;;;2.00;99.90;;;;;;4993258;28;20050;-52
2022/01/28 04:16:04;;;;;;;5.47;2.45;;;1.90;99.90;;;;;;4993157;28;20613;-52
2022/01/28 04:18:31;;;;;;;3.58;1.77;;;2.00;99.90;;;;;;4992947;28;20066;-54
2022/01/28 04:20:58;;;;;;;6.20;2.35;;;2.00;99.90;;;;;;4993032;28;20494;-54
2022/01/28 04:23:24;;;;;;;4.07;1.77;;;1.90;99.90;;;;;;4993059;28;20089;-54
2022/01/28 04:25:51;;;;;;;6.45;2.60;;;1.90;99.90;;;;;;4992924;28;20093;-55
2022/01/28 04:28:20;;;;;;;3.83;1.70;;;1.70;99.90;;;;;;4992796;28;20046;-55
2022/01/28 04:30:47;;;;;;;5.72;2.05;;;2.00;99.90;;;;;;4997480;28;20100;-52
2022/01/28 04:33:14;;;;;;;;;;;2.00;99.90;;;;;;5012347;28;20046;-52
2022/01/28 04:35:41;;;;;;;2.03;1.42;;;2.10;99.90;;;;;;5012028;28;19921;-52
2022/01/28 04:40:42;;;;;;;3.33;1.40;;;2.00;99.90;;;;;;5011786;28;20088;-52
2022/01/28 04:45:49;;;;;;;2.83;1.60;;;1.90;99.90;;;;;;5011753;28;20044;-52
2022/01/28 04:48:28;;;;;;;3.00;1.27;;;2.00;99.90;;;;;;4992357;28;20418;-51
2022/01/28 04:51:29;;;;;;;2.60;1.58;;;2.00;99.90;;;;;;4999166;28;20045;-52
2022/01/28 04:59:18;;;;;;;2.92;1.33;;;2.00;99.90;;;;;;5011803;28;20076;-52
2022/01/28 05:07:24;;;;;;;5.07;1.92;;;1.90;99.90;;;;;;5011490;28;20092;-54
2022/01/28 05:12:44;;;;;;;3.30;1.67;;;1.90;99.90;;;;;;5012224;28;20116;-55
2022/01/28 05:28:23;;;;;;;7.10;1.48;;;2.50;99.90;;;;;;5011406;28;20049;-54
2022/01/28 05:30:50;;;;;;;5.00;1.45;;;2.50;99.90;;;;;;5011820;28;20484;-52
2022/01/28 05:33:16;;;;;;;9.90;2.20;;;2.60;99.90;;;;;;5011613;28;20583;-54
2022/01/28 05:35:43;;;;;;;4.40;2.25;;;2.60;99.90;;;;;;5010945;28;20062;-52
2022/01/28 05:38:10;;;;;;;7.55;2.38;;;2.60;99.90;;;;;;5011283;28;20046;-54
2022/01/28 05:40:37;;;;;;;4.57;1.92;;;2.50;99.90;;;;;;5011623;28;20125;-52
2022/01/28 05:43:04;;;;;;;3.00;1.52;;;2.50;99.90;;;;;;5013375;28;20410;-52
2022/01/28 05:45:31;;;;;;;7.82;2.95;;;2.50;99.90;;;;;;5015104;28;20042;-54
2022/01/28 05:47:58;;;;;;;6.25;3.45;;;2.40;99.90;;;;;;5012597;28;20046;-52
2022/01/28 05:50:25;;;;;;;3.33;1.90;;;2.40;99.90;;;;;;5015555;28;20034;-52
2022/01/28 05:52:52;;;;;;;3.22;1.50;;;2.40;99.90;;;;;;5015237;28;20042;-52
2022/01/28 05:55:19;;;;;;;1.92;1.35;;;2.50;99.90;;;;;;5015022;28;20092;-52
2022/01/28 05:57:50;;;;;;;15.88;6.88;;;2.50;99.90;;;;;;5012173;28;20401;-52
2022/01/28 06:00:17;;;;;;;11.93;5.72;;;2.40;99.90;;;;;;5015532;28;20046;-55
2022/01/28 06:02:45;;;;;;;26.95;10.68;;;2.30;99.90;;;;;;5015384;28;20046;-54
2022/01/28 06:05:12;;;;;;;13.13;5.95;;;2.10;99.90;;;;;;5014856;28;20406;-55
2022/01/28 06:07:42;;;;;;;9.13;3.83;;;2.00;99.90;;;;;;5013900;28;20069;-52
2022/01/28 06:10:10;;;;;;;5.72;2.72;;;1.90;99.90;;;;;;5013800;28;20497;-54
2022/01/28 06:12:46;;;;;;;14.18;6.82;;;1.80;99.90;;;;;;5014481;28;20048;-54
2022/01/28 06:15:13;;;;;;;15.07;7.70;;;1.80;99.90;;;;;;5014851;28;20152;-55
2022/01/28 06:17:40;;;;;;;;;;;1.80;99.90;;;;;;5014676;28;20441;-54
2022/01/28 06:20:09;;;;;;;7.70;3.42;;;1.80;99.90;;;;;;5014932;28;19976;-55
2022/01/28 06:22:41;;;;;;;7.57;4.53;;;1.80;99.90;;;;;;5014771;28;20205;-53
2022/01/28 06:25:10;;;;;;;6.68;3.70;;;1.80;99.90;;;;;;5014898;28;20100;-55
2022/01/28 06:27:37;;;;;;;5.50;3.00;;;1.80;99.90;;;;;;5014334;28;20426;-54
2022/01/28 06:30:05;;;;;;;6.07;3.22;;;1.80;99.90;;;;;;5014849;28;20076;-53
2022/01/28 06:32:33;;;;;;;12.05;6.00;;;1.90;99.90;;;;;;5014828;28;20041;-56
2022/01/28 06:35:00;;;;;;;;;;;1.90;99.90;;;;;;5015085;28;20042;-53
2022/01/28 06:37:27;;;;;;;6.93;3.88;;;2.00;99.90;;;;;;5013203;28;20333;-54
2022/01/28 06:39:54;;;;;;;9.90;6.10;;;2.00;99.90;;;;;;5014205;28;20149;-53
2022/01/28 06:42:21;;;;;;;25.95;9.00;;;2.00;99.90;;;;;;5013971;28;20042;-53
2022/01/28 06:44:48;;;;;;;17.85;4.72;;;1.90;99.90;;;;;;5014266;28;20045;-55
2022/01/28 06:47:15;;;;;;;12.57;4.97;;;1.90;99.90;;;;;;5014049;28;20052;-54
2022/01/28 06:50:05;;;;;;;8.52;4.72;;;1.80;99.90;;;;;;5026425;23;20132;-58
2022/01/28 06:53:16;;;;;;;15.43;7.05;;;1.80;99.90;;;;;;4990861;28;20088;-59
2022/01/28 06:55:43;;;;;;;11.80;5.35;;;1.90;99.90;;;;;;4931125;29;20099;-59
2022/01/28 06:58:10;;;;;;;4.75;2.55;;;1.90;99.90;;;;;;4990677;28;20088;-59
2022/01/28 07:00:39;;;;;;;2.28;1.13;;;2.00;99.90;;;;;;4994559;28;20403;-59
2022/01/28 07:03:11;;;;;;;9.23;3.05;;;2.30;99.90;;;;;;4992823;28;20058;-59
2022/01/28 07:05:39;;;;;;;8.45;3.05;;;2.50;99.90;;;;;;4992805;28;20050;-59
2022/01/28 07:08:06;;;;;;;;;;;2.60;99.90;;;;;;4993852;28;20043;-59
2022/01/28 07:10:33;;;;;;;3.10;1.83;;;2.70;99.90;;;;;;4994482;28;19921;-59
2022/01/28 07:13:00;;;;;;;12.43;6.03;;;2.70;99.90;;;;;;4994414;28;20039;-59
2022/01/28 07:15:28;;;;;;;21.38;11.15;;;2.70;99.90;;;;;;4994461;28;20510;-58
2022/01/28 07:17:58;;;;;;;14.45;7.00;;;2.50;99.90;;;;;;4993663;28;20085;-59
2022/01/28 07:20:25;;;;;;;3.80;2.28;;;2.40;99.90;;;;;;4994299;28;20050;-59
2022/01/28 07:22:52;;;;;;;3.25;1.83;;;2.30;99.90;;;;;;4994312;28;20098;-58
2022/01/28 07:25:19;;;;;;;6.15;2.40;;;3.00;99.90;;;;;;4994170;28;20494;-59
2022/01/28 07:27:45;;;;;;;2.60;1.15;;;3.00;99.90;;;;;;4993739;28;20065;-59
2022/01/28 07:30:14;;;;;;;4.03;0.98;;;3.00;99.90;;;;;;4993917;28;20042;-59
2022/01/28 07:32:41;;;;;;;4.53;1.67;;;3.00;99.90;;;;;;4994124;28;20073;-59
2022/01/28 07:35:11;;;;;;;2.20;1.30;;;3.00;99.90;;;;;;4994113;28;20129;-59
2022/01/28 07:37:38;;;;;;;;;;;3.10;99.90;;;;;;4993939;28;20182;-59
2022/01/28 07:40:06;;;;;;;4.00;1.50;;;3.50;99.90;;;;;;4992545;28;19949;-59
2022/01/28 07:42:36;;;;;;;3.55;1.50;;;3.70;99.90;;;;;;4993792;28;20042;-59
2022/01/28 07:45:06;;;;;;;4.78;1.17;;;3.70;99.90;;;;;;4992605;28;20411;-59
2022/01/28 07:47:36;;;;;;;1.98;0.80;;;3.70;99.90;;;;;;4993497;28;20097;-59
2022/01/28 07:50:07;;;;;;;3.28;1.83;;;3.70;99.90;;;;;;4993419;28;20743;-59
2022/01/28 07:52:35;;;;;;;2.88;1.77;;;3.70;99.90;;;;;;4993635;28;20158;-59
2022/01/28 07:55:04;;;;;;;5.80;2.22;;;3.40;99.90;;;;;;4993632;28;20522;-59
2022/01/28 07:57:31;;;;;;;4.25;1.80;;;3.40;99.90;;;;;;4993335;28;20419;-59
2022/01/28 07:59:58;;;;;;;10.85;2.03;;;3.30;99.90;;;;;;4993359;28;20042;-59
2022/01/28 08:02:27;;;;;;;5.28;2.10;;;3.10;99.90;;;;;;4993818;28;20082;-59
2022/01/28 08:04:55;;;;;;;3.65;2.13;;;3.10;99.90;;;;;;4992654;28;20121;-59
2022/01/28 08:07:22;;;;;;;;;;;2.90;99.90;;;;;;4993359;28;20096;-59
2022/01/28 08:09:50;;;;;;;4.10;1.53;;;2.70;99.90;;;;;;4993354;28;19922;-59
2022/01/28 08:12:17;;;;;;;1.17;0.90;;;2.70;99.90;;;;;;4993357;28;20081;-59
2022/01/28 08:14:44;;;;;;;2.33;1.17;;;2.60;99.90;;;;;;4993305;28;20034;-59
2022/01/28 08:17:11;;;;;;;5.63;1.08;;;2.70;99.90;;;;;;4992871;28;20050;-59
2022/01/28 08:19:38;;;;;;;4.00;1.38;;;2.80;99.90;;;;;;4992757;28;20042;-59
2022/01/28 08:22:07;;;;;;;3.03;1.42;;;2.90;99.90;;;;;;4993219;28;20043;-59
2022/01/28 08:24:33;;;;;;;2.72;1.40;;;2.90;99.90;;;;;;4993107;28;20038;-59
2022/01/28 08:27:00;;;;;;;5.53;1.75;;;2.90;99.90;;;;;;4992710;28;20050;-59
2022/01/28 08:29:27;;;;;;;8.80;1.70;;;2.80;99.90;;;;;;4992967;28;20046;-59
2022/01/28 08:31:54;;;;;;;4.60;1.35;;;2.60;99.90;;;;;;4992781;28;20049;-59
2022/01/28 08:34:21;;;;;;;4.88;1.60;;;2.50;99.90;;;;;;4992909;28;20050;-59
2022/01/28 08:36:48;;;;;;;3.20;1.88;;;2.40;99.90;;;;;;4992523;28;20042;-59
2022/01/28 08:39:16;;;;;;;5.45;2.20;;;2.20;99.90;;;;;;4992700;28;20038;-59
2022/01/28 08:41:43;;;;;;;3.13;1.80;;;2.10;99.90;;;;;;4992683;28;20046;-59
2022/01/28 08:44:15;;;;;;;5.85;2.55;;;2.00;99.90;;;;;;4992574;28;20053;-59
2022/01/28 08:46:42;;;;;;;5.85;2.75;;;1.90;99.90;;;;;;4992621;28;20104;-59
2022/01/28 08:49:09;;;;;;;14.45;6.60;;;1.90;99.90;;;;;;4992125;28;20046;-59
2022/01/28 08:51:37;;;;;;;37.58;15.70;;;1.80;99.90;;;;;;4992829;28;20052;-59
2022/01/28 08:54:04;;;;;;;23.52;11.13;;;1.80;99.90;;;;;;4992586;28;20038;-59
2022/01/28 08:56:31;;;;;;;17.02;5.90;;;1.80;99.90;;;;;;4992228;28;20041;-59
2022/01/28 08:58:57;;;;;;;9.30;5.55;;;1.80;99.90;;;;;;4991972;28;20514;-59
2022/01/28 09:01:24;;;;;;;22.27;7.20;;;1.70;99.90;;;;;;4992234;28;20491;-59
2022/01/28 09:03:52;;;;;;;14.20;6.63;;;1.70;99.90;;;;;;4992410;28;20056;-59
2022/01/28 09:06:19;;;;;;;15.93;7.50;;;1.80;99.90;;;;;;4992220;28;20046;-59
2022/01/28 09:08:47;;;;;;;14.20;6.70;;;1.90;99.90;;;;;;4992037;28;20054;-59
2022/01/28 09:13:52;;;;;;;24.15;11.77;;;2.10;99.90;;;;;;4992201;28;20054;-59
2022/01/28 09:16:21;;;;;;;27.25;11.88;;;2.20;99.90;;;;;;4992259;28;20495;-59
2022/01/28 09:18:48;;;;;;;26.13;10.52;;;2.30;99.90;;;;;;4991715;28;20089;-59
2022/01/28 09:21:15;;;;;;;21.63;9.32;;;2.40;99.90;;;;;;4992299;28;20042;-59
2022/01/28 09:23:42;;;;;;;16.52;8.88;;;2.40;99.90;;;;;;4992256;28;20046;-59
2022/01/28 09:26:09;;;;;;;13.93;8.20;;;2.40;99.90;;;;;;4992071;28;20058;-59
2022/01/28 09:28:36;;;;;;;17.58;7.68;;;2.50;99.90;;;;;;4991671;28;20054;-59
2022/01/28 09:31:04;;;;;;;24.27;12.27;;;2.60;99.90;;;;;;4992251;28;20058;-59
2022/01/28 09:33:31;;;;;;;20.08;12.05;;;2.70;99.90;;;;;;4992108;28;20502;-59
2022/01/28 09:35:57;;;;;;;20.52;10.63;;;2.70;99.90;;;;;;4992091;28;20050;-59
2022/01/28 09:38:24;;;;;;;16.10;8.45;;;2.80;99.90;;;;;;4991585;28;20045;-59
2022/01/28 09:40:52;;;;;;;15.73;7.72;;;2.80;99.90;;;;;;4992125;28;20093;-59
2022/01/28 09:43:19;;;;;;;16.45;9.77;;;2.80;99.90;;;;;;4992095;28;20069;-58
2022/01/28 09:45:47;;;;;;;18.77;11.32;;;2.80;99.90;;;;;;4992008;28;20493;-58
2022/01/28 09:48:18;;;;;;;21.17;9.73;;;2.70;99.90;;;;;;4991432;28;20068;-58
2022/01/28 09:50:46;;;;;;;22.13;9.38;;;2.70;99.90;;;;;;4992052;28;20057;-59
2022/01/28 09:53:14;;;;;;;17.95;9.50;;;2.80;99.90;;;;;;4991614;28;20350;-58
2022/01/28 09:55:42;;;;;;;15.30;7.70;;;2.90;99.90;;;;;;4991988;28;20046;-58
2022/01/28 09:58:09;;;;;;;12.98;6.05;;;2.80;99.90;;;;;;4991436;28;20054;-58
2022/01/28 10:00:36;;;;;;;12.38;6.53;;;2.90;99.90;;;;;;4991862;28;20043;-58
2022/01/28 10:03:06;;;;;;;16.13;8.32;;;3.00;99.90;;;;;;4991795;28;20046;-60
2022/01/28 10:05:34;;;;;;;18.92;8.77;;;2.90;99.90;;;;;;4991839;28;20065;-58
2022/01/28 10:08:12;;;;;;;13.35;7.35;;;3.00;99.90;;;;;;4991057;28;20092;-58
2022/01/28 10:11:04;;;;;;;10.57;6.03;;;3.10;99.90;;;;;;4992137;28;20050;-58
2022/01/28 10:13:43;;;;;;;8.32;2.60;;;3.20;99.90;;;;;;4992019;28;20050;-58
2022/01/28 10:16:24;;;;;;;6.00;2.72;;;3.30;99.90;;;;;;4991652;28;20046;-58
2022/01/28 10:18:55;;;;;;;7.78;3.30;;;3.20;99.90;;;;;;4991227;28;20467;-58
2022/01/28 10:21:43;;;;;;;8.15;2.58;;;3.20;99.90;;;;;;4991814;28;20396;-58
2022/01/28 10:24:22;;;;;;;5.35;3.08;;;3.20;99.90;;;;;;4991736;28;20046;-59
2022/01/28 10:26:51;;;;;;;4.40;1.80;;;3.30;99.90;;;;;;4991349;28;20046;-58
2022/01/28 10:29:27;;;;;;;6.35;2.40;;;3.40;99.90;;;;;;4993272;28;20046;-60
2022/01/28 10:32:03;;;;;;;6.03;2.80;;;3.60;99.90;;;;;;4995124;28;20170;-60
2022/01/28 10:34:35;;;;;;;9.15;4.32;;;3.80;99.90;;;;;;4995252;28;20077;-58
2022/01/28 10:37:16;;;;;;;28.23;10.40;;;3.60;99.90;;;;;;4994592;28;20101;-59
2022/01/28 10:39:44;;;;;;;17.02;7.20;;;3.60;99.90;;;;;;4994934;28;20046;-60
2022/01/28 10:42:19;;;;;;;28.67;9.45;;;3.70;99.90;;;;;;4994985;28;20105;-58
2022/01/28 10:44:56;;;;;;;11.85;5.40;;;3.80;99.90;;;;;;4995042;28;20039;-58
2022/01/28 10:47:35;;;;;;;17.80;5.78;;;3.70;99.90;;;;;;4994445;28;20047;-60
2022/01/28 10:50:26;;;;;;;21.00;12.05;;;3.90;99.90;;;;;;4994510;28;20463;-60
2022/01/28 10:53:13;;;;;;;11.82;5.55;;;4.10;99.90;;;;;;4986605;28;20054;-58
2022/01/28 10:55:41;;;;;;;9.77;4.43;;;4.10;99.90;;;;;;4994749;28;20117;-60
2022/01/28 10:58:14;;;;;;;13.55;4.28;;;4.20;99.90;;;;;;4994247;28;20042;-58
2022/01/28 11:00:48;;;;;;;9.00;4.40;;;4.20;99.90;;;;;;4994594;28;20034;-60
2022/01/28 11:03:18;;;;;;;9.45;4.93;;;4.30;99.90;;;;;;4994557;28;20544;-58
2022/01/28 11:05:45;;;;;;;26.17;9.85;;;4.40;99.90;;;;;;4994631;28;20046;-60
2022/01/28 11:08:13;;;;;;;;;;;4.40;99.90;;;;;;4994497;28;20104;-60
2022/01/28 11:10:41;;;;;;;19.02;7.55;;;4.40;99.90;;;;;;4994593;28;19928;-60
2022/01/28 11:13:09;;;;;;;25.08;11.73;;;4.40;99.90;;;;;;4994142;28;20053;-60
2022/01/28 11:15:35;;;;;;;24.23;12.07;;;4.40;99.90;;;;;;4994443;28;20042;-59
2022/01/28 11:18:06;;;;;;;21.45;11.45;;;4.40;99.90;;;;;;4993829;28;20046;-60
2022/01/28 11:20:45;;;;;;;15.98;7.95;;;4.50;99.90;;;;;;4994403;28;20130;-60
2022/01/28 11:23:51;;;;;;;21.92;10.43;;;4.20;99.90;;;;;;4994147;28;20042;-60
2022/01/28 11:26:57;;;;;;;19.25;8.68;;;4.10;99.90;;;;;;4994377;28;20050;-59
2022/01/28 11:29:28;;;;;;;16.65;9.15;;;4.30;99.90;;;;;;4993336;28;20142;-61
2022/01/28 11:32:17;;;;;;;6.72;2.90;;;4.50;99.90;;;;;;4994025;28;20053;-59
2022/01/28 11:35:08;;;;;;;10.48;4.40;;;4.60;99.90;;;;;;4993958;28;20113;-60
2022/01/28 11:37:37;;;;;;;2.05;1.10;;;4.70;99.90;;;;;;4993416;28;20379;-60
2022/01/28 11:40:09;;;;;;;2.97;1.42;;;4.60;99.90;;;;;;4992904;28;20042;-60
2022/01/28 11:42:37;;;;;;;1.92;1.38;;;4.50;99.90;;;;;;4993891;28;20117;-60
2022/01/28 11:45:10;;;;;;;2.95;1.17;;;4.30;99.90;;;;;;4993711;28;20046;-60
2022/01/28 11:47:56;;;;;;;4.75;1.60;;;4.20;99.90;;;;;;4993452;28;20074;-61
2022/01/28 11:50:24;;;;;;;6.40;3.00;;;4.20;99.90;;;;;;4993762;28;20499;-58
2022/01/28 11:52:54;;;;;;;16.38;6.20;;;4.30;99.90;;;;;;4992533;28;20153;-59
2022/01/28 11:55:21;;;;;;;26.55;7.53;;;4.30;99.90;;;;;;4993552;28;20038;-61
2022/01/28 11:58:06;;;;;;;19.20;6.13;;;4.30;99.90;;;;;;4993399;28;20402;-60
2022/01/28 12:00:43;;;;;;;14.10;4.97;;;4.40;99.90;;;;;;4993450;28;20526;-59
2022/01/28 12:03:24;;;;;;;37.58;12.35;;;4.50;99.90;;;;;;4993510;28;20046;-60
2022/01/28 12:06:10;;;;;;;39.28;17.98;;;4.30;99.90;;;;;;4993479;28;20046;-60
2022/01/28 12:08:38;;;;;;;47.17;14.32;;;4.10;99.90;;;;;;4992818;28;20484;-60
2022/01/28 12:11:08;;;;;;;25.90;9.27;;;4.10;99.90;;;;;;4993251;28;20077;-60
2022/01/28 12:13:53;;;;;;;15.23;6.70;;;4.20;99.90;;;;;;4993221;28;20042;-60
2022/01/28 12:16:33;;;;;;;16.20;7.10;;;4.40;99.90;;;;;;4993311;28;20054;-60
2022/01/28 12:19:01;;;;;;;29.63;10.73;;;4.50;99.90;;;;;;4992408;28;20038;-60
2022/01/28 12:21:31;;;;;;;15.43;6.53;;;4.60;99.90;;;;;;4993129;28;20053;-60
2022/01/28 12:24:20;;;;;;;18.63;7.65;;;4.50;99.90;;;;;;4993246;28;20046;-60
2022/01/28 12:26:59;;;;;;;;;;;4.50;99.90;;;;;;4993253;28;20042;-60
2022/01/28 12:29:34;;;;;;;6.22;3.55;;;4.60;99.90;;;;;;4993150;28;20078;-60
2022/01/28 12:32:04;;;;;;;9.43;3.40;;;4.60;99.90;;;;;;4992811;28;20121;-60
2022/01/28 12:34:31;;;;;;;7.10;2.05;;;4.80;99.90;;;;;;4992852;28;20081;-60
2022/01/28 12:36:59;;;;;;;5.32;1.60;;;4.80;99.90;;;;;;4992601;28;20053;-60
2022/01/28 12:39:37;;;;;;;5.70;1.30;;;4.80;99.90;;;;;;4992598;28;20089;-60
2022/01/28 12:44:32;;;;;;;5.10;1.50;;;4.80;99.90;;;;;;4992729;28;20046;-60
2022/01/28 12:47:09;;;;;;;8.23;4.18;;;4.60;99.90;;;;;;4992429;28;20088;-60
2022/01/28 12:49:38;;;;;;;7.97;2.13;;;4.40;99.90;;;;;;5016451;23;20061;-58
2022/01/28 12:52:09;;;;;;;3.97;1.45;;;4.40;99.90;;;;;;5006804;28;20442;-57
2022/01/28 12:54:42;;;;;;;8.18;1.30;;;4.20;99.90;;;;;;4999820;28;20046;-54
2022/01/28 12:57:14;;;;;;;2.47;1.08;;;4.20;99.90;;;;;;5011906;28;20050;-55
2022/01/28 12:59:45;;;;;;;4.53;1.10;;;4.00;99.90;;;;;;4999697;28;20054;-55
2022/01/28 13:02:13;;;;;;;3.78;1.10;;;4.00;99.90;;;;;;4992490;28;20065;-56
2022/01/28 13:05:18;;;;;;;3.47;1.20;;;4.00;99.90;;;;;;4992292;28;20490;-57
2022/01/28 13:10:31;;;;;;;3.83;1.42;;;4.60;99.90;;;;;;4992324;28;20062;-55
2022/01/28 13:13:24;;;;;;;11.25;1.25;;;4.80;99.90;;;;;;4992356;28;20069;-55
2022/01/28 13:15:54;;;;;;;3.83;1.27;;;4.80;99.90;;;;;;4988897;28;20089;-59
2022/01/28 13:18:21;;;;;;;7.22;1.33;;;4.90;99.90;;;;;;4991711;28;20085;-57
2022/01/28 13:20:48;;;;;;;1.60;1.02;;;4.90;99.90;;;;;;4992351;28;20046;-59
2022/01/28 13:23:15;;;;;;;5.28;1.05;;;5.00;99.90;;;;;;4992232;28;20062;-58
2022/01/28 13:25:42;;;;;;;6.43;1.58;;;4.80;99.90;;;;;;4992118;28;20046;-56
2022/01/28 13:28:14;;;;;;;3.78;1.80;;;4.60;99.90;;;;;;4991762;28;20450;-55
2022/01/28 13:30:56;;;;;;;9.35;3.47;;;4.40;99.90;;;;;;4991539;28;20050;-57
2022/01/28 13:33:31;;;;;;;21.63;10.30;;;4.00;99.90;;;;;;4992122;28;20125;-55
2022/01/28 13:36:01;;;;;;;29.95;12.43;;;4.00;99.90;;;;;;4985201;28;20070;-57
2022/01/28 13:38:38;;;;;;;14.05;5.95;;;4.10;99.90;;;;;;4981307;28;20043;-57
2022/01/28 13:41:24;;;;;;;9.40;3.60;;;4.30;99.90;;;;;;4982939;28;20042;-57
2022/01/28 13:43:53;;;;;;;8.90;3.15;;;4.40;99.90;;;;;;4983598;28;20490;-57
2022/01/28 13:46:20;;;;;;;12.90;7.85;;;4.40;99.90;;;;;;4980965;28;20049;-55
2022/01/28 13:48:48;;;;;;;7.50;4.88;;;4.40;99.90;;;;;;4979608;28;20069;-55
2022/01/28 13:51:19;;;;;;;7.30;2.33;;;4.40;99.90;;;;;;4981208;28;20050;-58
2022/01/28 13:56:28;;;;;;;6.53;3.90;;;4.50;99.90;;;;;;4983525;28;20050;-57
2022/01/28 13:58:55;;;;;;;3.47;2.30;;;4.30;99.90;;;;;;4985721;28;20438;-57
2022/01/28 14:01:25;;;;;;;8.93;1.77;;;4.30;99.90;;;;;;4991705;28;20096;-54
2022/01/28 14:04:00;;;;;;;2.88;1.25;;;4.50;99.90;;;;;;4993149;28;20042;-57
2022/01/28 14:06:33;;;;;;;3.75;1.85;;;4.60;99.90;;;;;;4995748;28;20089;-58
2022/01/28 14:09:07;;;;;;;8.70;3.78;;;4.60;99.90;;;;;;4995237;28;20058;-58
2022/01/28 14:11:40;;;;;;;8.65;3.80;;;4.70;99.90;;;;;;4993668;28;20502;-58
2022/01/28 14:14:35;;;;;;;7.53;2.10;;;4.70;99.90;;;;;;4984587;28;20105;-57
2022/01/28 14:17:10;;;;;;;4.78;2.10;;;4.80;99.90;;;;;;4986191;28;20142;-57
2022/01/28 14:19:40;;;;;;;7.78;2.47;;;4.80;99.90;;;;;;4984650;28;20427;-55
2022/01/28 14:22:27;;;;;;;5.85;1.90;;;4.80;99.90;;;;;;4995946;28;20104;-57
2022/01/28 14:24:53;;;;;;;10.80;3.53;;;4.90;99.90;;;;;;5009710;28;20053;-56
2022/01/28 14:30:04;;;;;;;8.15;2.95;;;5.10;99.90;;;;;;4984940;28;20479;-57
2022/01/28 14:32:31;;;;;;;6.18;2.65;;;5.00;99.90;;;;;;4991119;28;20097;-58
2022/01/28 14:34:58;;;;;;;7.32;3.28;;;4.90;99.90;;;;;;5002227;28;20437;-58
2022/01/28 14:37:31;;;;;;;5.82;2.70;;;4.70;99.90;;;;;;5003056;28;20503;-57
2022/01/28 14:39:57;;;;;;;4.82;2.00;;;4.50;99.90;;;;;;5014300;28;20048;-59
2022/01/28 14:42:24;;;;;;;5.63;2.00;;;4.40;99.90;;;;;;5014660;28;20038;-57
2022/01/28 14:44:51;;;;;;;6.22;2.28;;;4.20;99.90;;;;;;5014582;28;20060;-58
2022/01/28 14:47:18;;;;;;;6.55;2.20;;;3.90;99.90;;;;;;5013867;28;20084;-56